Time;durP1;ratioP1;P1;durP2;ratioP2;P2;SDS_P1;SDS_P2;PMS_P1;PMS_P2;Temp;Humidity;BMP_temperature;BMP_pressure;BME280_temperature;BME280_humidity;BME280_pressure;Samples;Min_cycle;Max_cycle;Signal;HPM_P1;HPM_P2
2022/12/07 00:01:33;;;;;;;6.50;3.97;;;;;;;5.60;68.76;99805.19;4843722;28;96914;-83
2022/12/07 00:04:04;;;;;;;5.97;3.43;;;;;;;5.60;68.93;99810.38;4825755;28;101233;-83
2022/12/07 00:06:37;;;;;;;7.50;3.15;;;;;;;5.62;68.90;99814.66;4820249;28;101287;-82
2022/12/07 00:09:06;;;;;;;4.30;2.97;;;;;;;5.61;68.81;99801.66;4835693;28;96843;-83
2022/12/07 00:11:32;;;;;;;5.57;3.20;;;;;;;5.43;68.77;99779.50;4840475;28;96925;-84
2022/12/07 00:14:00;;;;;;;3.63;2.67;;;;;;;5.43;68.91;99776.91;4831729;29;97815;-84
2022/12/07 00:16:28;;;;;;;6.07;2.87;;;;;;;5.57;68.68;99800.88;4838608;28;97378;-82
2022/12/07 00:18:54;;;;;;;6.07;2.80;;;;;;;5.54;68.46;99787.94;4831737;28;97177;-83
2022/12/07 00:21:22;;;;;;;6.80;3.13;;;;;;;5.55;68.72;99792.25;4812527;28;97347;-83
2022/12/07 00:23:49;;;;;;;3.75;2.90;;;;;;;5.55;68.59;99789.63;4825678;29;101302;-83
2022/12/07 00:26:17;;;;;;;4.67;2.73;;;;;;;5.51;68.69;99782.81;4817653;29;101517;-83
2022/12/07 00:28:50;;;;;;;2.80;2.40;;;;;;;5.49;68.70;99781.13;4848970;28;97941;-84
2022/12/07 00:31:17;;;;;;;4.00;2.20;;;;;;;5.43;68.83;99771.69;4837952;28;97124;-83
2022/12/07 00:33:43;;;;;;;4.53;2.70;;;;;;;5.40;68.90;99763.94;4849217;28;102016;-83
2022/12/07 00:36:12;;;;;;;3.93;2.23;;;;;;;5.51;68.54;99774.13;4822457;29;101441;-83
2022/12/07 00:38:38;;;;;;;3.72;2.17;;;;;;;5.54;68.42;99779.28;4811125;29;97437;-82
2022/12/07 00:41:15;;;;;;;3.53;2.30;;;;;;;5.53;68.63;99786.22;4826435;29;97626;-83
2022/12/07 00:43:42;;;;;;;3.47;2.40;;;;;;;5.50;68.70;99781.09;4820303;28;101812;-83
2022/12/07 00:46:08;;;;;;;2.80;2.10;;;;;;;5.49;68.61;99768.94;4810207;29;101436;-83
2022/12/07 00:48:34;;;;;;;3.30;2.30;;;;;;;5.54;68.23;99774.91;4828073;28;96936;-84
2022/12/07 00:51:00;;;;;;;3.03;2.00;;;;;;;5.47;68.71;99765.53;4842751;29;96942;-82
2022/12/07 00:53:27;;;;;;;2.72;2.17;;;;;;;5.52;68.46;99778.44;4836307;28;97887;-83
2022/12/07 00:55:52;;;;;;;2.90;2.23;;;;;;;5.56;68.19;99782.72;4820137;29;100285;-83
2022/12/07 00:58:18;;;;;;;3.67;1.93;;;;;;;5.51;68.53;99777.59;4825045;28;97125;-83
2022/12/07 01:00:44;;;;;;;2.70;1.90;;;;;;;5.50;68.59;99783.69;4825945;28;96999;-86
2022/12/07 01:03:12;;;;;;;3.77;2.20;;;;;;;5.55;68.58;99794.84;4810971;29;101227;-83
2022/12/07 01:05:38;;;;;;;2.97;2.23;;;;;;;5.35;68.57;99755.38;4819373;28;101240;-84
2022/12/07 01:08:04;;;;;;;2.80;2.10;;;;;;;5.29;68.54;99750.31;4822067;28;97211;-83
2022/12/07 01:10:31;;;;;;;3.40;1.67;;;;;;;5.49;68.59;99787.16;4840221;28;99819;-83
2022/12/07 01:12:57;;;;;;;4.50;1.77;;;;;;;5.50;68.75;99786.31;4840054;28;98293;-82
2022/12/07 01:15:23;;;;;;;3.03;1.83;;;;;;;5.38;68.70;99763.13;4825267;28;100804;-82
2022/12/07 01:17:49;;;;;;;2.13;1.70;;;;;;;5.50;68.61;99790.63;4831354;28;96681;-83
2022/12/07 01:20:15;;;;;;;4.60;1.83;;;;;;;5.49;68.79;99773.31;4815432;28;97613;-83
2022/12/07 01:22:42;;;;;;;7.30;1.83;;;;;;;5.45;68.50;99783.78;4832850;28;101629;-83
2022/12/07 01:25:09;;;;;;;2.53;1.88;;;;;;;5.44;68.60;99774.28;4835249;28;97919;-83
2022/12/07 01:27:35;;;;;;;3.03;1.87;;;;;;;5.32;68.63;99755.44;4827996;28;97161;-83
2022/12/07 01:30:02;;;;;;;1.80;1.60;;;;;;;5.50;68.80;99780.22;4822576;29;97391;-83
2022/12/07 01:32:28;;;;;;;3.17;1.93;;;;;;;5.43;68.34;99772.53;4838611;28;101940;-83
2022/12/07 01:34:54;;;;;;;2.50;1.57;;;;;;;5.42;68.25;99773.44;4847098;29;97362;-83
2022/12/07 01:37:19;;;;;;;3.03;1.60;;;;;;;5.40;68.56;99777.81;4824741;28;97071;-83
2022/12/07 01:39:48;;;;;;;2.67;1.67;;;;;;;5.24;68.29;99736.56;4823770;29;97880;-85
2022/12/07 01:42:14;;;;;;;2.43;1.50;;;;;;;5.48;68.68;99782.88;4853012;28;101446;-83
2022/12/07 01:45:17;;;;;;;3.70;1.87;;;;;;;5.49;68.54;99787.16;4810642;28;101279;-83
2022/12/07 01:47:44;;;;;;;2.78;1.60;;;;;;;5.32;68.35;99760.66;4826553;29;97422;-82
2022/12/07 01:50:09;;;;;;;3.77;1.70;;;;;;;5.46;68.23;99782.03;4843667;28;97143;-82
2022/12/07 01:52:36;;;;;;;2.45;1.48;;;;;;;5.45;68.18;99772.53;4828144;29;98022;-82
2022/12/07 01:55:05;;;;;;;3.23;1.33;;;;;;;5.35;68.12;99763.19;4842816;28;97682;-83
2022/12/07 01:57:33;;;;;;;5.13;1.60;;;;;;;5.40;67.95;99774.34;4827018;28;97803;-83
2022/12/07 01:59:59;;;;;;;3.90;1.83;;;;;;;5.42;68.42;99785.59;4833986;28;97488;-83
2022/12/07 02:02:43;;;;;;;3.93;1.50;;;;;;;5.37;68.57;99769.22;4845178;29;98105;-83
2022/12/07 02:05:08;;;;;;;2.70;1.40;;;;;;;5.38;68.55;99770.91;4829817;29;101109;-82
2022/12/07 02:07:36;;;;;;;2.67;1.30;;;;;;;5.40;68.24;99780.41;4820248;29;97671;-83
2022/12/07 02:10:16;;;;;;;2.90;1.60;;;;;;;5.38;68.49;99782.22;4833924;28;97675;-83
2022/12/07 02:12:44;;;;;;;1.93;1.13;;;;;;;5.39;68.70;99781.31;4812182;28;101132;-83
2022/12/07 02:15:10;;;;;;;1.47;1.00;;;;;;;5.34;68.51;99772.75;4830913;28;98501;-83
2022/12/07 02:17:46;;;;;;;2.87;1.30;;;;;;;5.35;68.16;99784.88;4834768;28;96804;-82
2022/12/07 02:20:20;;;;;;;2.23;1.53;;;;;;;5.35;68.58;99784.00;4834972;28;96794;-83
2022/12/07 02:23:23;;;;;;;3.00;1.33;;;;;;;5.30;68.35;99772.88;4820917;28;101564;-83
2022/12/07 02:25:48;;;;;;;2.03;1.07;;;;;;;5.33;68.81;99778.00;4848684;28;97945;-83
2022/12/07 02:28:31;;;;;;;2.77;1.37;;;;;;;5.33;68.78;99778.84;4830222;28;97221;-83
2022/12/07 02:31:03;;;;;;;2.57;1.33;;;;;;;5.32;68.61;99771.06;4825045;28;97215;-83
2022/12/07 02:33:30;;;;;;;;;;;;;;;5.30;68.42;99776.31;4824851;29;101501;-83
2022/12/07 02:36:06;;;;;;;2.40;1.00;;;;;;;5.32;68.61;99778.88;4821630;28;101075;-83
2022/12/07 02:38:37;;;;;;;1.87;1.00;;;;;;;5.28;69.07;99780.69;4828026;29;97267;-82
2022/12/07 02:41:33;;;;;;;3.20;1.30;;;;;;;5.27;68.78;99785.94;4822800;28;97170;-83
2022/12/07 02:44:02;;;;;;;1.30;1.00;;;;;;;5.26;68.92;99774.66;4828210;28;98213;-83
2022/12/07 02:46:31;;;;;;;2.00;1.13;;;;;;;5.28;68.32;99775.47;4831946;28;101397;-83
2022/12/07 02:48:59;;;;;;;3.00;1.20;;;;;;;5.27;68.63;99773.78;4827585;28;97285;-82
2022/12/07 02:51:25;;;;;;;2.70;1.20;;;;;;;5.23;68.24;99764.31;4833654;29;97330;-82
2022/12/07 02:53:51;;;;;;;2.03;1.00;;;;;;;5.27;68.74;99771.19;4827630;28;97967;-83
2022/12/07 02:56:35;;;;;;;2.07;1.13;;;;;;;5.29;68.70;99773.72;4818635;28;101354;-83
2022/12/07 02:59:19;;;;;;;0.83;0.70;;;;;;;5.27;68.52;99778.97;4841196;28;97636;-82
2022/12/07 03:01:54;;;;;;;1.47;0.90;;;;;;;5.24;69.04;99770.38;4836451;28;97123;-82
2022/12/07 03:04:58;;;;;;;2.05;0.88;;;;;;;5.14;68.61;99756.69;4859213;28;101705;-83
2022/12/07 03:07:30;;;;;;;1.93;1.20;;;;;;;5.12;68.64;99748.06;4865902;28;102077;-83
2022/12/07 03:10:17;;;;;;;3.35;1.45;;;;;;;5.20;68.73;99762.63;4852387;28;96676;-83
2022/12/07 03:13:14;;;;;;;2.53;1.30;;;;;;;5.17;68.75;99765.28;4862944;28;96980;-82
2022/12/07 03:16:02;;;;;;;1.90;1.10;;;;;;;5.16;69.02;99760.97;4846848;28;101554;-83
2022/12/07 03:18:30;;;;;;;1.57;0.73;;;;;;;5.20;69.02;99766.97;4852364;28;101599;-83
2022/12/07 03:21:00;;;;;;;1.60;1.10;;;;;;;5.22;69.10;99757.41;4847027;28;97163;-82
2022/12/07 03:23:26;;;;;;;1.87;1.10;;;;;;;5.21;68.59;99761.75;4847117;28;96917;-81
2022/12/07 03:25:56;;;;;;;1.47;1.30;;;;;;;5.18;69.07;99756.59;4849630;28;101109;-83
2022/12/07 03:28:24;;;;;;;7.28;1.40;;;;;;;5.22;68.63;99749.59;4851071;28;98407;-83
2022/12/07 03:31:03;;;;;;;2.03;1.20;;;;;;;5.19;68.61;99752.25;4846063;28;97810;-83
2022/12/07 03:33:32;;;;;;;2.33;1.03;;;;;;;5.20;68.97;99759.16;4853830;28;96982;-82
2022/12/07 03:36:02;;;;;;;1.77;1.23;;;;;;;5.18;68.97;99748.81;4841809;28;101617;-82
2022/12/07 03:38:38;;;;;;;1.57;0.90;;;;;;;5.21;69.25;99756.53;4865882;28;100521;-82
2022/12/07 03:41:09;;;;;;;2.47;0.90;;;;;;;5.09;68.83;99733.41;4860471;28;97140;-82
2022/12/07 03:43:36;;;;;;;2.53;1.10;;;;;;;5.24;68.78;99752.19;4851047;28;96914;-84
2022/12/07 03:46:39;;;;;;;1.80;1.10;;;;;;;5.21;68.91;99737.47;4824897;28;101289;-83
2022/12/07 03:49:25;;;;;;;2.47;0.97;;;;;;;5.24;68.91;99745.22;4821542;28;97009;-85
2022/12/07 03:52:07;;;;;;;1.58;1.00;;;;;;;5.22;69.09;99741.78;4851871;28;97709;-83
2022/12/07 03:54:49;;;;;;;2.17;1.20;;;;;;;5.10;68.86;99713.44;4842092;28;97260;-82
2022/12/07 03:57:15;;;;;;;1.13;0.90;;;;;;;5.06;69.16;99710.03;4845582;28;101369;-83
2022/12/07 03:59:42;;;;;;;1.90;1.10;;;;;;;5.18;69.17;99729.75;4848991;28;101543;-82
2022/12/07 04:02:07;;;;;;;1.40;1.00;;;;;;;5.21;68.77;99740.09;4849584;28;97018;-82
2022/12/07 04:04:34;;;;;;;2.13;0.97;;;;;;;5.22;69.07;99736.56;4842459;28;97343;-82
2022/12/07 04:07:00;;;;;;;2.00;0.97;;;;;;;5.21;69.00;99743.53;4839992;28;101578;-83
2022/12/07 04:09:26;;;;;;;1.63;1.10;;;;;;;5.22;69.26;99733.97;4841019;28;101498;-82
2022/12/07 04:11:51;;;;;;;2.30;0.93;;;;;;;5.21;69.11;99743.53;4861840;28;97166;-85
2022/12/07 04:14:20;;;;;;;1.50;1.00;;;;;;;5.17;69.11;99739.25;4863345;28;96816;-82
2022/12/07 04:16:48;;;;;;;1.23;1.10;;;;;;;5.10;69.30;99729.88;4830009;28;102167;-83
2022/12/07 04:19:15;;;;;;;1.73;0.83;;;;;;;5.15;69.30;99740.22;4860962;28;98286;-83
2022/12/07 04:21:41;;;;;;;1.57;1.10;;;;;;;5.15;69.16;99735.84;4842250;28;96973;-82
2022/12/07 04:24:06;;;;;;;3.57;1.20;;;;;;;5.13;68.97;99731.56;4841477;28;97249;-82
2022/12/07 04:26:32;;;;;;;2.90;1.23;;;;;;;5.14;69.61;99730.69;4842626;28;101193;-83
2022/12/07 04:28:58;;;;;;;1.60;1.30;;;;;;;5.19;69.19;99741.84;4828693;28;101839;-83
2022/12/07 04:31:23;;;;;;;1.20;1.00;;;;;;;5.18;69.26;99737.53;4834582;28;97070;-83
2022/12/07 04:33:49;;;;;;;1.23;1.00;;;;;;;5.21;69.36;99734.88;4832481;28;96983;-83
2022/12/07 04:36:14;;;;;;;1.63;1.00;;;;;;;5.09;69.17;99722.09;4827013;28;101778;-82
2022/12/07 04:38:40;;;;;;;1.97;1.33;;;;;;;5.03;69.01;99712.69;4854103;28;98214;-82
2022/12/07 04:41:06;;;;;;;1.43;1.20;;;;;;;5.14;69.58;99736.72;4853685;28;97252;-83
2022/12/07 04:43:32;;;;;;;1.07;0.97;;;;;;;5.13;69.20;99737.63;4861666;28;97116;-83
2022/12/07 04:45:58;;;;;;;1.83;1.17;;;;;;;5.07;69.72;99716.94;4847063;28;101030;-82
2022/12/07 04:48:23;;;;;;;3.50;1.40;;;;;;;5.19;69.40;99737.50;4853622;28;101380;-83
2022/12/07 04:50:51;;;;;;;1.20;1.10;;;;;;;5.21;69.41;99734.88;4859576;28;96784;-82
2022/12/07 04:53:17;;;;;;;1.67;1.23;;;;;;;5.07;69.16;99714.34;4846519;28;96732;-83
2022/12/07 04:55:44;;;;;;;2.77;1.60;;;;;;;5.14;68.89;99730.69;4856637;28;100946;-83
2022/12/07 04:58:10;;;;;;;2.03;1.63;;;;;;;5.18;69.51;99727.13;4848243;28;100902;-83
2022/12/07 05:00:35;;;;;;;1.77;1.30;;;;;;;5.14;69.98;99725.47;4854826;28;96808;-82
2022/12/07 05:03:01;;;;;;;1.80;1.60;;;;;;;5.03;69.50;99709.22;4830382;28;96954;-83
2022/12/07 05:05:26;;;;;;;2.23;1.40;;;;;;;5.08;69.61;99712.59;4854099;28;101175;-82
2022/12/07 05:07:52;;;;;;;2.13;1.50;;;;;;;5.17;69.64;99725.41;4850573;28;101090;-83
2022/12/07 05:10:17;;;;;;;3.13;2.07;;;;;;;5.16;70.03;99726.31;4850388;28;96829;-83
2022/12/07 05:12:43;;;;;;;3.70;1.50;;;;;;;5.18;69.80;99735.78;4840942;28;97029;-83
2022/12/07 05:15:09;;;;;;;2.30;1.67;;;;;;;5.16;70.07;99734.09;4856148;28;101016;-82
2022/12/07 05:17:35;;;;;;;2.37;1.80;;;;;;;5.16;69.46;99732.34;4846905;28;101563;-82
2022/12/07 05:20:00;;;;;;;2.33;1.80;;;;;;;5.09;70.06;99719.50;4840412;29;97913;-83
2022/12/07 05:22:27;;;;;;;2.90;2.20;;;;;;;5.14;70.11;99734.13;4841818;28;96856;-82
2022/12/07 05:24:56;;;;;;;3.23;2.27;;;;;;;5.13;70.02;99728.97;4852688;28;98086;-83
2022/12/07 05:27:22;;;;;;;2.90;1.90;;;;;;;5.10;69.94;99722.09;4849186;28;101702;-82
2022/12/07 05:29:49;;;;;;;2.70;1.80;;;;;;;5.14;69.77;99723.72;4837731;28;98682;-82
2022/12/07 05:32:15;;;;;;;3.03;2.50;;;;;;;5.12;69.86;99719.44;4844250;28;98130;-83
2022/12/07 05:34:40;;;;;;;3.17;2.47;;;;;;;4.97;69.89;99695.47;4837058;28;101382;-82
2022/12/07 05:37:06;;;;;;;5.17;3.20;;;;;;;5.18;70.36;99728.00;4846341;28;101258;-82
2022/12/07 05:39:31;;;;;;;8.83;3.77;;;;;;;5.15;70.06;99730.66;4855922;28;96742;-84
2022/12/07 05:42:12;;;;;;;6.53;3.80;;;;;;;5.12;69.57;99727.25;4861479;28;97020;-84
2022/12/07 05:44:42;;;;;;;8.20;4.60;;;;;;;5.11;69.79;99720.34;4848537;29;101065;-81
2022/12/07 05:47:08;;;;;;;11.10;5.83;;;;;;;5.14;69.34;99731.53;4851167;28;101166;-82
2022/12/07 05:49:34;;;;;;;9.83;5.67;;;;;;;5.14;69.36;99733.28;4839229;29;96852;-82
2022/12/07 05:52:00;;;;;;;11.97;6.03;;;;;;;5.08;69.57;99728.19;4841747;28;96891;-83
2022/12/07 05:54:26;;;;;;;10.05;5.95;;;;;;;5.15;69.14;99728.06;4839870;28;101315;-82
2022/12/07 05:56:51;;;;;;;10.53;6.10;;;;;;;5.10;69.44;99722.09;4865078;28;97810;-82
2022/12/07 05:59:22;;;;;;;9.43;6.33;;;;;;;5.12;69.00;99730.72;4856303;28;97229;-83
2022/12/07 06:01:49;;;;;;;10.10;5.93;;;;;;;5.01;68.74;99711.03;4831795;28;97320;-83
2022/12/07 06:04:16;;;;;;;10.23;6.93;;;;;;;5.12;69.08;99733.31;4850955;28;98560;-83
2022/12/07 06:06:41;;;;;;;11.93;7.13;;;;;;;5.13;69.05;99739.38;4839445;28;101391;-82
2022/12/07 06:09:07;;;;;;;9.18;6.80;;;;;;;5.13;68.44;99731.56;4846063;28;97112;-82
2022/12/07 06:14:16;;;;;;;10.70;7.57;;;;;;;5.14;68.45;99730.69;4860032;28;101439;-83
2022/12/07 06:16:42;;;;;;;10.27;7.17;;;;;;;5.12;68.23;99727.25;4841467;28;101837;-82
2022/12/07 06:19:07;;;;;;;9.80;7.57;;;;;;;5.04;67.96;99718.75;4843245;28;97750;-83
2022/12/07 06:21:33;;;;;;;10.73;8.17;;;;;;;4.97;68.27;99705.88;4852764;28;97626;-82
2022/12/07 06:23:58;;;;;;;10.73;8.20;;;;;;;4.99;68.30;99704.09;4839472;28;101563;-83
2022/12/07 06:26:24;;;;;;;10.87;7.90;;;;;;;5.08;68.04;99717.78;4848670;28;101253;-83
2022/12/07 06:28:49;;;;;;;10.80;7.80;;;;;;;5.08;67.61;99717.78;4878948;28;97574;-83
2022/12/07 06:31:15;;;;;;;12.80;8.82;;;;;;;5.14;67.66;99720.25;4853889;28;96874;-83
2022/12/07 06:33:41;;;;;;;10.03;8.17;;;;;;;5.03;67.60;99704.03;4848793;28;101376;-82
2022/12/07 06:36:07;;;;;;;10.97;9.00;;;;;;;5.02;67.86;99710.97;4842785;28;101174;-83
2022/12/07 06:38:32;;;;;;;10.80;7.97;;;;;;;5.08;67.83;99723.00;4835927;28;97279;-82
2022/12/07 06:40:58;;;;;;;11.13;8.37;;;;;;;5.12;67.74;99733.31;4850776;28;97226;-83
2022/12/07 06:43:23;;;;;;;11.77;8.57;;;;;;;5.06;67.36;99728.25;4851096;28;97967;-84
2022/12/07 06:45:49;;;;;;;12.57;8.77;;;;;;;5.07;67.11;99736.91;4847480;28;102152;-82
2022/12/07 06:48:14;;;;;;;12.77;8.50;;;;;;;5.10;67.41;99731.63;4848553;28;96877;-82
2022/12/07 06:50:40;;;;;;;13.50;8.37;;;;;;;5.09;67.42;99727.31;4850642;28;96843;-82
2022/12/07 06:53:05;;;;;;;10.63;8.47;;;;;;;4.92;67.14;99699.91;4832260;28;101718;-83
2022/12/07 06:55:31;;;;;;;12.73;9.20;;;;;;;5.01;66.97;99717.09;4851735;28;98444;-82
2022/12/07 06:57:56;;;;;;;12.27;9.30;;;;;;;5.10;67.05;99731.63;4857552;28;96769;-83
2022/12/07 07:00:22;;;;;;;13.70;9.57;;;;;;;4.97;66.85;99718.91;4833514;28;97176;-81
2022/12/07 07:02:47;;;;;;;10.57;8.63;;;;;;;5.11;66.70;99734.19;4836293;28;101909;-82
2022/12/07 07:05:13;;;;;;;12.40;8.43;;;;;;;5.09;66.69;99733.41;4834238;28;101200;-81
2022/12/07 07:07:38;;;;;;;12.63;8.98;;;;;;;5.13;66.69;99741.97;4841016;28;97897;-83
2022/12/07 07:10:04;;;;;;;10.77;8.27;;;;;;;5.12;66.35;99733.31;4838834;28;97424;-85
2022/12/07 07:12:30;;;;;;;10.10;8.23;;;;;;;5.13;66.54;99724.63;4846908;28;102091;-85
2022/12/07 07:14:56;;;;;;;12.53;8.13;;;;;;;5.02;66.16;99708.38;4850063;28;101506;-84
2022/12/07 07:17:21;;;;;;;10.90;8.43;;;;;;;5.09;66.45;99714.28;4843223;28;96868;-86
2022/12/07 07:19:47;;;;;;;11.20;8.27;;;;;;;5.15;66.20;99732.41;4842965;28;97297;-83
2022/12/07 07:22:12;;;;;;;10.47;7.87;;;;;;;5.15;66.25;99728.06;4851138;28;101513;-83
2022/12/07 07:24:38;;;;;;;13.23;8.40;;;;;;;5.07;66.08;99713.50;4858773;28;101462;-84
2022/12/07 07:27:03;;;;;;;13.00;9.10;;;;;;;5.11;65.76;99722.94;4845267;28;97350;-84
2022/12/07 07:29:29;;;;;;;10.00;8.00;;;;;;;5.12;66.22;99722.03;4845074;28;97351;-80
2022/12/07 07:31:54;;;;;;;10.90;8.30;;;;;;;5.14;66.12;99726.31;4854318;28;100326;-80
2022/12/07 07:34:20;;;;;;;11.17;8.40;;;;;;;5.07;66.09;99716.09;4854339;28;97425;-81
2022/12/07 07:36:45;;;;;;;10.20;8.33;;;;;;;5.03;65.93;99702.28;4840054;28;97246;-80
2022/12/07 07:39:12;;;;;;;10.97;8.17;;;;;;;5.12;65.96;99717.72;4855605;28;97358;-82
2022/12/07 07:41:38;;;;;;;11.00;7.90;;;;;;;5.20;66.04;99717.53;4867175;28;98020;-82
2022/12/07 07:44:03;;;;;;;12.27;8.37;;;;;;;5.23;65.93;99714.84;4855407;28;98060;-82
2022/12/07 07:46:29;;;;;;;11.50;8.17;;;;;;;5.35;65.82;99714.63;4847841;28;97254;-82
2022/12/07 07:48:54;;;;;;;11.27;8.50;;;;;;;5.34;65.73;99709.44;4866840;28;97629;-81
2022/12/07 07:51:20;;;;;;;11.13;8.47;;;;;;;5.41;65.24;99717.06;4847670;28;101969;-81
2022/12/07 07:53:46;;;;;;;11.13;8.17;;;;;;;5.34;65.53;99709.44;4832590;28;101539;-81
2022/12/07 07:56:11;;;;;;;9.97;8.43;;;;;;;5.39;65.51;99702.38;4838785;28;97865;-83
2022/12/07 07:58:39;;;;;;;11.10;8.20;;;;;;;5.58;65.72;99718.41;4850400;28;97215;-82
2022/12/07 08:01:08;;;;;;;10.67;8.23;;;;;;;5.60;65.19;99691.47;4848282;28;98036;-82
2022/12/07 08:03:34;;;;;;;11.40;8.43;;;;;;;5.77;65.04;99696.25;4839062;28;101406;-81
2022/12/07 08:05:59;;;;;;;11.50;8.27;;;;;;;5.83;64.45;99714.34;4834225;28;97543;-82
2022/12/07 08:08:25;;;;;;;11.47;7.97;;;;;;;5.73;64.43;99715.47;4842494;28;97786;-85
2022/12/07 08:10:50;;;;;;;10.43;7.70;;;;;;;5.78;64.33;99724.00;4831336;28;100551;-85
2022/12/07 08:13:16;;;;;;;11.47;8.77;;;;;;;5.68;64.52;99718.19;4848806;28;97066;-90
2022/12/07 08:15:44;;;;;;;10.80;7.90;;;;;;;5.67;64.12;99721.69;4852671;28;97469;-89
2022/12/07 08:18:10;;;;;;;10.93;8.30;;;;;;;5.62;63.86;99715.72;4852117;28;97228;-87
2022/12/07 08:20:37;;;;;;;11.87;8.67;;;;;;;5.63;63.89;99711.38;4851419;28;98032;-85
2022/12/07 08:23:03;;;;;;;11.00;9.00;;;;;;;5.78;63.85;99724.00;4883906;28;97988;-83
2022/12/07 08:25:29;;;;;;;11.40;8.45;;;;;;;5.71;63.61;99721.59;4863955;28;97488;-88
2022/12/07 08:27:54;;;;;;;10.37;8.67;;;;;;;5.72;63.68;99708.53;4860153;28;97025;-88
2022/12/07 08:30:20;;;;;;;11.33;8.77;;;;;;;5.93;63.54;99724.53;4830328;28;100313;-85
2022/12/07 08:32:46;;;;;;;10.93;8.00;;;;;;;6.15;63.24;99722.28;4838852;28;100619;-84
2022/12/07 08:35:12;;;;;;;11.17;8.60;;;;;;;6.13;63.11;99712.75;4857621;28;97338;-85
2022/12/07 08:37:38;;;;;;;12.63;9.73;;;;;;;6.29;62.90;99714.97;4849221;28;97631;-86
2022/12/07 08:40:05;;;;;;;12.00;8.97;;;;;;;6.66;62.74;99720.06;4836059;28;101393;-85
2022/12/07 08:42:37;;;;;;;17.23;10.80;;;;;;;6.66;62.24;99680.06;4847998;28;101728;-87
2022/12/07 08:45:07;;;;;;;13.00;9.30;;;;;;;7.03;61.68;99719.00;4848598;28;97262;-85
2022/12/07 08:47:35;;;;;;;15.20;10.00;;;;;;;7.17;61.84;99695.13;4852662;28;97455;-87
2022/12/07 08:50:03;;;;;;;13.73;9.38;;;;;;;7.37;60.77;99713.66;4836603;28;100976;-82
2022/12/07 08:52:30;;;;;;;13.88;9.75;;;;;;;7.31;60.36;99706.00;4838615;28;100537;-86
2022/12/07 08:54:56;;;;;;;14.23;9.38;;;;;;;7.43;60.22;99700.41;4853582;28;97312;-86
2022/12/07 08:57:21;;;;;;;14.60;9.35;;;;;;;7.60;59.58;99697.25;4853184;28;98598;-87
2022/12/07 08:59:47;;;;;;;13.02;9.18;;;;;;;7.82;58.98;99697.41;4835981;28;102494;-88
2022/12/07 09:02:12;;;;;;;14.15;9.07;;;;;;;8.07;58.39;99702.69;4827550;28;101077;-88
2022/12/07 09:04:38;;;;;;;14.55;8.90;;;;;;;8.28;57.74;99700.25;4847377;28;97357;-90
2022/12/07 09:07:04;;;;;;;11.57;7.97;;;;;;;8.35;56.80;99673.84;4844333;28;97709;-90
2022/12/07 09:09:29;;;;;;;13.20;8.73;;;;;;;8.61;56.83;99699.13;4847018;28;100902;-91
2022/12/07 09:11:55;;;;;;;12.88;8.20;;;;;;;8.66;55.85;99671.91;4855546;28;97612;-91
2022/12/07 09:14:21;;;;;;;11.15;7.82;;;;;;;9.00;55.60;99687.25;4865842;28;96994;-90
2022/12/07 09:16:46;;;;;;;10.80;7.32;;;;;;;8.88;55.10;99674.63;4856875;28;96945;-87
2022/12/07 09:19:12;;;;;;;12.40;8.00;;;;;;;9.00;55.05;99661.91;4851270;28;101211;-85
2022/12/07 09:21:38;;;;;;;16.40;9.27;;;;;;;8.82;54.89;99675.69;4849693;28;101739;-85
2022/12/07 09:24:03;;;;;;;10.93;7.10;;;;;;;8.66;54.60;99670.16;4842424;28;98103;-84
2022/12/07 09:26:29;;;;;;;11.65;7.47;;;;;;;8.50;54.91;99669.88;4854115;28;96849;-85
2022/12/07 09:28:54;;;;;;;9.40;6.93;;;;;;;8.58;54.21;99672.19;4854298;28;98189;-88
2022/12/07 09:31:20;;;;;;;9.38;6.97;;;;;;;8.65;54.40;99668.47;4850877;28;101572;-78
2022/12/07 09:33:45;;;;;;;14.70;8.25;;;;;;;8.50;54.51;99662.03;4842149;28;98144;-77
2022/12/07 09:36:11;;;;;;;13.07;8.38;;;;;;;8.33;54.46;99644.28;4846521;28;98070;-77
2022/12/07 09:38:36;;;;;;;8.50;6.65;;;;;;;8.24;54.54;99642.00;4846990;28;101436;-78
2022/12/07 09:41:07;;;;;;;9.20;6.68;;;;;;;8.04;54.48;99649.69;4855643;28;98230;-79
2022/12/07 09:43:34;;;;;;;9.32;6.63;;;;;;;7.92;55.24;99633.50;4860326;28;97290;-79
2022/12/07 09:45:59;;;;;;;8.15;5.60;;;;;;;7.87;55.27;99643.25;4849888;28;97246;-77
2022/12/07 09:48:31;;;;;;;12.13;6.78;;;;;;;7.86;56.10;99654.63;4831836;28;101115;-79
2022/12/07 09:50:58;;;;;;;7.85;5.65;;;;;;;7.68;55.95;99644.78;4858938;28;97931;-78
2022/12/07 09:53:30;;;;;;;10.45;6.22;;;;;;;7.60;55.72;99639.81;4836645;28;97173;-85
2022/12/07 09:55:56;;;;;;;8.15;5.97;;;;;;;7.63;55.96;99657.13;4854790;28;97379;-85
2022/12/07 09:58:26;;;;;;;9.73;6.38;;;;;;;7.51;55.82;99647.94;4849160;28;98051;-84
2022/12/07 10:01:09;;;;;;;8.25;5.15;;;;;;;7.45;56.12;99641.16;4839893;28;101484;-84
2022/12/07 10:03:38;;;;;;;9.45;6.00;;;;;;;7.47;55.99;99633.25;4858487;28;97437;-84
2022/12/07 10:06:05;;;;;;;8.73;5.97;;;;;;;7.43;56.26;99629.03;4850129;28;97370;-84
2022/12/07 10:08:31;;;;;;;6.47;4.25;;;;;;;7.43;55.94;99632.50;4855121;28;98911;-86
2022/12/07 10:10:57;;;;;;;8.48;5.25;;;;;;;7.45;56.08;99625.47;4825663;28;99013;-84
2022/12/07 10:13:35;;;;;;;7.85;5.20;;;;;;;7.42;56.08;99617.75;4849648;28;96794;-85
2022/12/07 10:16:01;;;;;;;7.35;5.00;;;;;;;7.51;56.54;99620.97;4886428;28;97720;-86
2022/12/07 10:18:41;;;;;;;5.45;4.22;;;;;;;7.41;55.38;99616.03;4852339;28;101503;-85
2022/12/07 10:21:26;;;;;;;8.00;5.40;;;;;;;7.37;55.40;99596.16;4850954;28;101348;-85
2022/12/07 10:24:04;;;;;;;8.52;5.47;;;;;;;7.27;56.01;99607.78;4856268;28;97481;-84
2022/12/07 10:26:50;;;;;;;8.98;5.35;;;;;;;7.02;56.48;99561.59;4872936;28;97374;-90
2022/12/07 10:29:20;;;;;;;8.93;6.15;;;;;;;7.14;56.62;99602.09;4831084;28;101688;-86
2022/12/07 10:31:51;;;;;;;10.10;6.15;;;;;;;7.09;57.11;99600.53;4827523;28;101425;-90
2022/12/07 10:34:35;;;;;;;12.63;6.70;;;;;;;7.03;57.13;99606.78;4858618;28;97216;-86
2022/12/07 10:37:12;;;;;;;9.48;6.55;;;;;;;7.04;57.65;99603.31;4843202;28;97267;-87
2022/12/07 10:39:44;;;;;;;11.38;6.45;;;;;;;6.98;57.88;99612.19;4849287;28;102007;-87
2022/12/07 10:42:29;;;;;;;9.07;6.10;;;;;;;6.92;58.04;99604.53;4888037;28;98076;-85
2022/12/07 10:45:15;;;;;;;7.32;4.78;;;;;;;6.91;58.60;99596.75;4840848;28;96837;-86
2022/12/07 10:48:02;;;;;;;10.80;5.57;;;;;;;6.87;58.36;99606.41;4850169;28;97387;-86
2022/12/07 10:50:58;;;;;;;11.57;4.85;;;;;;;6.82;58.11;99604.84;4837217;28;100636;-86
2022/12/07 10:53:44;;;;;;;10.10;4.80;;;;;;;6.85;58.20;99610.81;4828835;28;101760;-86
2022/12/07 10:56:31;;;;;;;7.50;3.80;;;;;;;6.82;57.97;99612.69;4865839;28;97277;-88
2022/12/07 10:59:19;;;;;;;3.33;2.65;;;;;;;6.68;58.84;99613.94;4840717;28;97553;-88
2022/12/07 11:02:02;;;;;;;4.30;2.40;;;;;;;6.61;59.26;99616.78;4865800;28;101823;-83
2022/12/07 11:04:34;;;;;;;4.40;2.40;;;;;;;6.64;59.33;99612.31;4856732;28;100845;-86
2022/12/07 11:07:31;;;;;;;4.07;2.65;;;;;;;6.61;59.45;99606.34;4862268;28;97701;-87
2022/12/07 11:10:23;;;;;;;4.05;2.63;;;;;;;6.65;60.15;99615.78;4849431;28;97706;-87
2022/12/07 11:12:57;;;;;;;2.92;2.33;;;;;;;6.60;59.88;99602.00;4856675;28;97199;-88
2022/12/07 11:15:29;;;;;;;9.25;3.00;;;;;;;6.53;60.36;99596.13;4844698;28;101436;-87
2022/12/07 11:18:06;;;;;;;3.83;2.83;;;;;;;6.56;60.22;99596.88;4838025;28;97240;-89
2022/12/07 11:20:50;;;;;;;7.05;2.92;;;;;;;6.61;60.45;99594.16;4844392;28;96840;-87
2022/12/07 11:23:21;;;;;;;6.43;3.20;;;;;;;6.52;60.36;99584.00;4858843;28;101663;-87
2022/12/07 11:25:54;;;;;;;4.35;2.80;;;;;;;6.53;60.68;99593.50;4869049;28;98009;-87
2022/12/07 11:28:47;;;;;;;5.18;2.92;;;;;;;6.52;60.61;99587.44;4841175;28;97253;-87
2022/12/07 11:31:25;;;;;;;3.58;2.40;;;;;;;6.35;60.72;99561.00;4862251;28;96830;-86
2022/12/07 11:34:00;;;;;;;4.25;2.50;;;;;;;6.39;61.00;99566.97;4856512;28;101214;-87
2022/12/07 11:36:41;;;;;;;5.63;2.72;;;;;;;6.44;60.87;99580.75;4854635;28;101339;-86
2022/12/07 11:39:10;;;;;;;6.05;3.00;;;;;;;6.43;60.89;99577.28;4857700;28;97184;-84
2022/12/07 11:41:38;;;;;;;3.20;2.55;;;;;;;6.40;60.88;99561.75;4866997;28;97119;-85
2022/12/07 11:44:35;;;;;;;3.65;2.30;;;;;;;6.39;61.21;99572.19;4853529;28;101342;-82
2022/12/07 11:47:09;;;;;;;2.85;2.25;;;;;;;6.33;61.30;99573.22;4860102;28;101010;-82
2022/12/07 11:49:59;;;;;;;3.75;2.38;;;;;;;5.95;61.33;99511.78;4841477;28;96751;-83
2022/12/07 11:52:49;;;;;;;5.13;2.30;;;;;;;6.33;61.35;99574.06;4855179;28;97174;-82